createdAt,value
2022-10-23T00:00:50.300Z,0.00
2022-10-23T00:01:50.950Z,0.00
2022-10-23T00:02:51.600Z,0.00
2022-10-23T00:03:52.234Z,0.00
2022-10-23T00:04:52.915Z,0.00
2022-10-23T00:05:53.529Z,0.00
2022-10-23T00:06:54.127Z,0.00
2022-10-23T00:07:54.751Z,0.00
2022-10-23T00:08:55.338Z,0.00
2022-10-23T00:09:56.054Z,0.00
2022-10-23T00:10:56.665Z,0.00
2022-10-23T00:11:57.249Z,0.00
2022-10-23T00:12:57.840Z,0.00
2022-10-23T00:13:58.441Z,0.00
2022-10-23T00:14:59.157Z,0.00
2022-10-23T00:15:59.750Z,0.00
2022-10-23T00:17:00.342Z,0.00
2022-10-23T00:18:00.933Z,0.00
2022-10-23T00:19:01.558Z,0.00
2022-10-23T00:20:02.207Z,0.00
2022-10-23T00:21:02.792Z,0.00
2022-10-23T00:22:03.376Z,0.00
2022-10-23T00:23:03.962Z,0.00
2022-10-23T00:24:04.596Z,0.00
2022-10-23T00:25:05.293Z,0.00
2022-10-23T00:26:05.892Z,0.00
2022-10-23T00:27:06.473Z,0.00
2022-10-23T00:28:07.056Z,0.00
2022-10-23T00:29:07.643Z,0.00
2022-10-23T00:30:08.288Z,0.00
2022-10-23T00:31:08.871Z,0.00
2022-10-23T00:32:09.459Z,0.00
2022-10-23T00:33:10.045Z,0.00
2022-10-23T00:34:10.654Z,0.00
2022-10-23T00:35:11.367Z,0.00
2022-10-23T00:36:11.963Z,0.00
2022-10-23T00:37:12.564Z,0.00
2022-10-23T00:38:13.160Z,0.00
2022-10-23T00:39:13.747Z,0.00
2022-10-23T00:40:14.500Z,0.00
2022-10-23T00:41:15.097Z,0.00
2022-10-23T00:42:15.689Z,0.00
2022-10-23T00:43:16.284Z,0.00
2022-10-23T00:44:16.887Z,0.00
2022-10-23T00:45:17.524Z,0.00
2022-10-23T00:46:18.118Z,0.00
2022-10-23T00:47:18.712Z,0.00
2022-10-23T00:48:19.307Z,0.00
2022-10-23T00:49:19.922Z,0.00
2022-10-23T00:50:20.561Z,0.00
2022-10-23T00:51:21.143Z,0.00
2022-10-23T00:52:21.733Z,0.00
2022-10-23T00:53:22.328Z,0.00
2022-10-23T00:54:24.430Z,0.00
2022-10-23T00:55:23.566Z,0.00
2022-10-23T00:56:24.160Z,0.00
2022-10-23T00:57:24.856Z,0.00
2022-10-23T00:58:25.496Z,0.00
2022-10-23T00:59:26.082Z,0.00
2022-10-23T01:00:26.920Z,0.00
2022-10-23T01:01:27.626Z,0.00
2022-10-23T01:02:28.391Z,0.00
2022-10-23T01:03:29.024Z,0.00
2022-10-23T01:04:29.644Z,0.00
2022-10-23T01:05:30.280Z,0.00
2022-10-23T01:06:30.862Z,0.00
2022-10-23T01:07:31.448Z,0.00
2022-10-23T01:08:32.031Z,0.00
2022-10-23T01:09:32.619Z,0.00
2022-10-23T01:10:33.391Z,0.00
2022-10-23T01:11:33.981Z,0.00
2022-10-23T01:12:34.574Z,0.00
2022-10-23T01:13:35.164Z,0.00
2022-10-23T01:14:35.754Z,0.00
2022-10-23T01:15:36.401Z,0.00
2022-10-23T01:16:36.992Z,0.00
2022-10-23T01:17:39.668Z,0.00
2022-10-23T01:18:38.472Z,0.00
2022-10-23T01:19:39.089Z,0.00
2022-10-23T01:20:39.741Z,0.00
2022-10-23T01:21:40.335Z,0.00
2022-10-23T01:22:41.364Z,0.00
2022-10-23T01:23:41.660Z,0.00
2022-10-23T01:24:42.256Z,0.00
2022-10-23T01:25:42.888Z,0.00
2022-10-23T01:26:43.491Z,0.00
2022-10-23T01:27:44.088Z,0.00
2022-10-23T01:28:44.686Z,0.00
2022-10-23T01:29:45.274Z,0.00
2022-10-23T01:30:45.921Z,0.00
2022-10-23T01:31:46.528Z,0.00
2022-10-23T01:32:47.122Z,0.00
2022-10-23T01:33:47.702Z,0.00
2022-10-23T01:34:48.312Z,0.00
2022-10-23T01:35:48.949Z,0.00
2022-10-23T01:36:49.544Z,0.00
2022-10-23T01:37:50.134Z,0.00
2022-10-23T01:38:50.752Z,0.00
2022-10-23T01:39:51.373Z,0.00
2022-10-23T01:40:52.120Z,0.00
2022-10-23T01:41:52.702Z,0.00
2022-10-23T01:42:53.290Z,0.00
2022-10-23T01:43:53.879Z,0.00
2022-10-23T01:44:54.458Z,0.00
2022-10-23T01:45:55.114Z,0.00
2022-10-23T01:46:55.700Z,0.00
2022-10-23T01:47:56.273Z,0.00
2022-10-23T01:48:56.855Z,0.00
2022-10-23T01:49:57.451Z,0.00
2022-10-23T01:50:58.142Z,0.00
2022-10-23T01:51:58.725Z,0.00
2022-10-23T01:52:59.306Z,0.00
2022-10-23T01:53:59.927Z,0.00
2022-10-23T01:55:00.517Z,0.00
2022-10-23T01:56:01.139Z,0.00
2022-10-23T01:57:01.735Z,0.00
2022-10-23T01:58:02.313Z,0.00
2022-10-23T01:59:02.892Z,0.00
2022-10-23T02:00:03.478Z,0.00
2022-10-23T02:01:04.228Z,0.00
2022-10-23T02:02:05.007Z,0.00
2022-10-23T02:03:05.639Z,0.00
2022-10-23T02:04:06.217Z,0.00
2022-10-23T02:05:06.824Z,0.00
2022-10-23T02:06:07.470Z,0.00
2022-10-23T02:07:08.079Z,0.00
2022-10-23T02:08:08.670Z,0.00
2022-10-23T02:09:09.256Z,0.00
2022-10-23T02:10:09.848Z,0.00
2022-10-23T02:11:11.216Z,0.00
2022-10-23T02:12:11.295Z,0.00
2022-10-23T02:13:11.884Z,0.00
2022-10-23T02:14:12.482Z,0.00
2022-10-23T02:15:13.076Z,0.00
2022-10-23T02:16:13.730Z,0.00
2022-10-23T02:17:14.315Z,0.00
2022-10-23T02:18:14.900Z,0.00
2022-10-23T02:19:15.527Z,0.00
2022-10-23T02:20:16.130Z,0.00
2022-10-23T02:21:16.773Z,0.00
2022-10-23T02:22:17.353Z,0.00
2022-10-23T02:23:17.936Z,0.00
2022-10-23T02:24:18.524Z,0.00
2022-10-23T02:25:19.118Z,0.00
2022-10-23T02:26:19.778Z,0.00
2022-10-23T02:27:20.377Z,0.00
2022-10-23T02:28:20.960Z,0.00
2022-10-23T02:29:21.565Z,0.00
2022-10-23T02:30:22.143Z,0.00
2022-10-23T02:31:22.789Z,0.00
2022-10-23T02:32:23.387Z,0.00
2022-10-23T02:33:23.979Z,0.00
2022-10-23T02:34:24.573Z,0.00
2022-10-23T02:35:25.185Z,0.00
2022-10-23T02:36:25.807Z,0.00
2022-10-23T02:37:26.400Z,0.00
2022-10-23T02:38:27.000Z,0.00
2022-10-23T02:39:27.601Z,0.00
2022-10-23T02:40:28.191Z,0.00
2022-10-23T02:41:28.967Z,0.00
2022-10-23T02:42:29.540Z,0.00
2022-10-23T02:43:30.142Z,0.00
2022-10-23T02:44:30.725Z,0.00
2022-10-23T02:45:31.385Z,0.00
2022-10-23T02:46:32.150Z,0.00
2022-10-23T02:47:32.731Z,0.00
2022-10-23T02:48:33.328Z,0.00
2022-10-23T02:49:33.934Z,0.00
2022-10-23T02:50:34.539Z,0.00
2022-10-23T02:51:35.212Z,0.00
2022-10-23T02:52:35.792Z,0.00
2022-10-23T02:53:36.380Z,0.00
2022-10-23T02:54:36.964Z,0.00
2022-10-23T02:55:37.575Z,0.00
2022-10-23T02:56:38.704Z,0.00
2022-10-23T02:57:38.883Z,0.00
2022-10-23T02:58:39.505Z,0.00
2022-10-23T02:59:40.091Z,0.00
2022-10-23T03:00:40.668Z,0.00
2022-10-23T03:01:41.390Z,0.00
2022-10-23T03:02:42.055Z,0.00
2022-10-23T03:03:42.642Z,0.00
2022-10-23T03:04:43.233Z,0.00
2022-10-23T03:05:43.844Z,0.00
2022-10-23T03:06:44.482Z,0.00
2022-10-23T03:07:45.208Z,0.00
2022-10-23T03:08:46.037Z,0.00
2022-10-23T03:09:46.638Z,0.00
2022-10-23T03:11:46.958Z,0.00
2022-10-23T03:12:48.543Z,0.00
2022-10-23T03:13:49.132Z,0.00
2022-10-23T03:14:49.744Z,0.00
2022-10-23T03:15:50.329Z,0.00
2022-10-23T03:16:51.035Z,0.00
2022-10-23T03:17:51.623Z,0.00
2022-10-23T03:18:52.221Z,0.00
2022-10-23T03:19:52.850Z,0.00
2022-10-23T03:20:53.460Z,0.00
2022-10-23T03:21:54.770Z,0.00
2022-10-23T03:22:54.858Z,0.00
2022-10-23T03:23:55.451Z,0.00
2022-10-23T03:24:56.041Z,0.00
2022-10-23T03:25:56.635Z,0.00
2022-10-23T03:26:57.270Z,0.00
2022-10-23T03:27:57.870Z,0.00
2022-10-23T03:28:58.473Z,0.00
2022-10-23T03:29:59.066Z,0.00
2022-10-23T03:30:59.663Z,0.00
2022-10-23T03:32:00.313Z,0.00
2022-10-23T03:33:00.897Z,0.00
2022-10-23T03:34:04.023Z,0.00
2022-10-23T03:35:02.333Z,0.00
2022-10-23T03:36:02.941Z,0.00
2022-10-23T03:37:03.574Z,0.00
2022-10-23T03:38:04.148Z,0.00
2022-10-23T03:39:04.731Z,0.00
2022-10-23T03:40:05.322Z,0.00
2022-10-23T03:41:05.918Z,0.00
2022-10-23T03:42:06.665Z,0.00
2022-10-23T03:43:07.250Z,0.00
2022-10-23T03:44:07.834Z,0.00
2022-10-23T03:45:08.427Z,0.00
2022-10-23T03:46:09.010Z,0.00
2022-10-23T03:47:09.653Z,0.00
2022-10-23T03:48:10.253Z,0.00
2022-10-23T03:49:10.841Z,0.00
2022-10-23T03:50:11.435Z,0.00
2022-10-23T03:51:12.051Z,0.00
2022-10-23T03:52:12.762Z,0.00
2022-10-23T03:53:13.378Z,0.00
2022-10-23T03:54:13.962Z,0.00
2022-10-23T03:55:14.554Z,0.00
2022-10-23T03:56:15.144Z,0.00
2022-10-23T03:57:15.808Z,0.00
2022-10-23T03:58:16.399Z,0.00
2022-10-23T03:59:16.998Z,0.00
2022-10-23T04:00:17.593Z,0.00
2022-10-23T04:01:18.275Z,0.00
2022-10-23T04:02:19.091Z,0.00
2022-10-23T04:03:19.742Z,0.00
2022-10-23T04:04:20.333Z,0.00
2022-10-23T04:05:20.924Z,0.00
2022-10-23T04:06:21.557Z,0.00
2022-10-23T04:07:22.293Z,0.00
2022-10-23T04:08:22.878Z,0.00
2022-10-23T04:09:23.464Z,0.00
2022-10-23T04:10:24.051Z,0.00
2022-10-23T04:11:24.594Z,1.00
2022-10-23T04:12:25.366Z,0.00
2022-10-23T04:13:25.958Z,0.00
2022-10-23T04:14:26.547Z,0.00
2022-10-23T04:15:27.133Z,0.00
2022-10-23T04:16:27.716Z,0.00
2022-10-23T04:18:27.853Z,1.00
2022-10-23T04:19:29.401Z,4.00
2022-10-23T04:20:29.940Z,2.00
2022-10-23T04:21:30.498Z,2.00
2022-10-23T04:22:31.074Z,3.00
2022-10-23T04:23:31.605Z,4.00
2022-10-23T04:24:32.145Z,4.00
2022-10-23T04:25:32.673Z,6.00
2022-10-23T04:26:33.212Z,10.00
2022-10-23T04:27:33.835Z,10.00
2022-10-23T04:28:34.370Z,14.00
2022-10-23T04:29:34.899Z,16.00
2022-10-23T04:30:35.435Z,22.00
2022-10-23T04:31:35.972Z,25.00
2022-10-23T04:32:36.938Z,33.00
2022-10-23T04:33:37.487Z,36.00
2022-10-23T04:34:38.030Z,38.00
2022-10-23T04:35:38.564Z,54.00
2022-10-23T04:36:39.118Z,65.00
2022-10-23T04:37:39.898Z,73.00
2022-10-23T04:38:40.560Z,85.00
2022-10-23T04:39:41.099Z,97.00
2022-10-23T04:40:41.643Z,107.00
2022-10-23T04:41:42.179Z,119.00
2022-10-23T04:42:43.191Z,135.00
2022-10-23T04:43:43.351Z,153.00
2022-10-23T04:44:43.917Z,167.00
2022-10-23T04:45:44.450Z,185.00
2022-10-23T04:46:44.994Z,205.00
2022-10-23T04:47:45.593Z,221.00
2022-10-23T04:48:46.170Z,244.00
2022-10-23T04:49:46.713Z,262.00
2022-10-23T04:50:47.251Z,285.00
2022-10-23T04:51:47.821Z,305.00
2022-10-23T04:52:48.416Z,322.00
2022-10-23T04:53:48.944Z,340.00
2022-10-23T04:54:49.486Z,364.00
2022-10-23T04:55:50.019Z,390.00
2022-10-23T04:56:50.555Z,409.00
2022-10-23T04:57:51.135Z,429.00
2022-10-23T04:58:51.664Z,453.00
2022-10-23T04:59:52.201Z,474.00
2022-10-23T05:00:52.775Z,495.00
2022-10-23T05:01:53.385Z,516.00
2022-10-23T05:02:54.008Z,535.00
2022-10-23T05:03:54.538Z,555.00
2022-10-23T05:04:55.074Z,581.00
2022-10-23T05:05:55.605Z,600.00
2022-10-23T05:06:56.170Z,626.00
2022-10-23T05:07:56.808Z,641.00
2022-10-23T05:08:57.344Z,664.00
2022-10-23T05:09:57.881Z,683.00
2022-10-23T05:10:58.412Z,703.00
2022-10-23T05:11:58.943Z,726.00
2022-10-23T05:12:59.603Z,742.00
2022-10-23T05:14:00.147Z,762.00
2022-10-23T05:15:00.700Z,783.00
2022-10-23T05:16:01.230Z,806.00
2022-10-23T05:17:01.773Z,820.00
2022-10-23T05:18:02.374Z,839.00
2022-10-23T05:19:02.912Z,862.00
2022-10-23T05:20:03.447Z,880.00
2022-10-23T05:21:03.982Z,902.00
2022-10-23T05:22:04.572Z,922.00
2022-10-23T05:23:05.223Z,939.00
2022-10-23T05:24:05.785Z,960.00
2022-10-23T05:25:06.323Z,982.00
2022-10-23T05:26:06.867Z,1005.00
2022-10-23T05:27:07.403Z,1029.00
2022-10-23T05:28:07.993Z,1043.00
2022-10-23T05:29:08.537Z,1063.00
2022-10-23T05:30:09.077Z,1086.00
2022-10-23T05:31:09.626Z,1106.00
2022-10-23T05:32:10.207Z,1136.00
2022-10-23T05:33:11.048Z,1156.00
2022-10-23T05:34:13.412Z,1181.00
2022-10-23T05:35:12.181Z,1200.00
2022-10-23T05:36:12.709Z,1227.00
2022-10-23T05:37:13.309Z,1250.00
2022-10-23T05:38:13.890Z,1276.00
2022-10-23T05:39:14.463Z,1292.00
2022-10-23T05:40:14.994Z,1312.00
2022-10-23T05:41:15.556Z,1339.00
2022-10-23T05:42:16.099Z,1356.00
2022-10-23T05:43:16.818Z,1371.00
2022-10-23T05:44:17.351Z,1412.00
2022-10-23T05:45:17.890Z,1443.00
2022-10-23T05:46:18.436Z,1480.00
2022-10-23T05:47:18.973Z,1513.00
2022-10-23T05:48:33.438Z,1541.00
2022-10-23T05:49:20.452Z,1572.00
2022-10-23T05:50:20.986Z,1608.00
2022-10-23T05:51:21.519Z,1647.00
2022-10-23T05:52:22.088Z,1679.00
2022-10-23T05:53:22.674Z,1710.00
2022-10-23T05:54:23.235Z,1679.00
2022-10-23T05:55:23.767Z,1493.00
2022-10-23T05:56:24.302Z,1064.00
2022-10-23T05:57:24.858Z,1225.00
2022-10-23T05:58:25.442Z,2523.00
2022-10-23T05:59:25.975Z,4580.00
2022-10-23T06:00:26.506Z,5292.00
2022-10-23T06:01:27.157Z,5562.00
2022-10-23T06:02:27.915Z,5724.00
2022-10-23T06:03:28.577Z,5865.00
2022-10-23T06:04:29.113Z,6002.00
2022-10-23T06:05:29.707Z,6239.00
2022-10-23T06:06:30.284Z,6579.00
2022-10-23T06:07:33.647Z,6985.00
2022-10-23T06:08:31.939Z,7492.00
2022-10-23T06:09:32.482Z,8041.00
2022-10-23T06:10:33.019Z,8503.00
2022-10-23T06:11:33.555Z,8874.00
2022-10-23T06:12:34.090Z,9002.00
2022-10-23T06:13:34.769Z,9336.00
2022-10-23T06:14:35.311Z,9678.00
2022-10-23T06:15:35.843Z,9873.00
2022-10-23T06:16:36.377Z,10025.00
2022-10-23T06:17:36.916Z,10295.00
2022-10-23T06:18:37.524Z,10517.00
2022-10-23T06:19:38.055Z,10728.00
2022-10-23T06:20:38.586Z,10973.00
2022-10-23T06:21:39.127Z,11195.00
2022-10-23T06:22:39.783Z,11453.00
2022-10-23T06:23:40.574Z,11459.00
2022-10-23T06:24:41.114Z,11733.00
2022-10-23T06:25:41.667Z,11938.00
2022-10-23T06:26:42.208Z,12107.00
2022-10-23T06:27:42.740Z,12102.00
2022-10-23T06:28:43.329Z,12322.00
2022-10-23T06:29:43.855Z,12906.00
2022-10-23T06:30:44.395Z,14858.00
2022-10-23T06:31:44.956Z,17471.00
2022-10-23T06:32:45.810Z,18434.00
2022-10-23T06:33:46.164Z,20015.00
2022-10-23T06:34:46.699Z,18974.00
2022-10-23T06:35:47.232Z,17484.00
2022-10-23T06:36:47.771Z,20047.00
2022-10-23T06:37:48.360Z,19142.00
2022-10-23T06:38:49.025Z,19234.00
2022-10-23T06:39:49.593Z,22410.00
2022-10-23T06:40:50.137Z,21498.00
2022-10-23T06:41:50.669Z,20680.00
2022-10-23T06:42:51.205Z,21906.00
2022-10-23T06:43:51.992Z,24699.00
2022-10-23T06:44:52.528Z,22228.00
2022-10-23T06:45:53.062Z,24898.00
2022-10-23T06:46:53.602Z,24830.00
2022-10-23T06:47:54.145Z,23205.00
2022-10-23T06:48:54.724Z,22650.00
2022-10-23T06:49:55.255Z,23294.00
2022-10-23T06:50:55.788Z,26441.00
2022-10-23T06:51:56.328Z,27235.00
2022-10-23T06:52:56.883Z,25653.00
2022-10-23T06:53:57.470Z,26964.00
2022-10-23T06:54:58.002Z,26564.00
2022-10-23T06:55:58.533Z,23211.00
2022-10-23T06:56:59.068Z,74336.00
2022-10-23T06:57:59.595Z,73742.00
2022-10-23T06:59:00.173Z,73511.00
2022-10-23T07:00:00.709Z,73280.00
2022-10-23T07:01:01.360Z,28115.00
2022-10-23T07:02:02.111Z,26020.00
2022-10-23T07:03:02.669Z,73343.00
2022-10-23T07:04:03.270Z,73986.00
2022-10-23T07:05:03.814Z,74604.00
2022-10-23T07:06:04.357Z,74710.00
2022-10-23T07:07:04.900Z,74601.00
2022-10-23T07:08:05.470Z,74595.00
2022-10-23T07:09:06.164Z,73906.00
2022-10-23T07:10:06.795Z,73624.00
2022-10-23T07:11:07.360Z,73670.00
2022-10-23T07:12:07.911Z,73830.00
2022-10-23T07:13:08.440Z,74160.00
2022-10-23T07:14:09.089Z,74188.00
2022-10-23T07:15:09.626Z,74394.00
2022-10-23T07:16:10.175Z,75003.00
2022-10-23T07:17:10.731Z,75707.00
2022-10-23T07:18:11.290Z,76284.00
2022-10-23T07:19:11.996Z,77106.00
2022-10-23T07:20:12.539Z,78450.00
2022-10-23T07:21:13.072Z,78502.00
2022-10-23T07:22:15.827Z,77951.00
2022-10-23T07:23:14.285Z,76925.00
2022-10-23T07:24:14.865Z,76477.00
2022-10-23T07:25:15.406Z,76386.00
2022-10-23T07:26:15.948Z,76724.00
2022-10-23T07:27:16.486Z,77671.00
2022-10-23T07:28:17.025Z,78308.00
2022-10-23T07:29:17.617Z,78818.00
2022-10-23T07:30:18.152Z,79022.00
2022-10-23T07:31:18.683Z,78084.00
2022-10-23T07:32:19.215Z,77717.00
2022-10-23T07:33:19.745Z,78382.00
2022-10-23T07:34:20.330Z,78932.00
2022-10-23T07:35:20.866Z,78147.00
2022-10-23T07:36:21.403Z,77513.00
2022-10-23T07:37:21.941Z,77934.00
2022-10-23T07:38:22.509Z,78788.00
2022-10-23T07:39:23.095Z,79091.00
2022-10-23T07:40:23.624Z,78966.00
2022-10-23T07:41:24.155Z,78649.00
2022-10-23T07:42:24.699Z,78388.00
2022-10-23T07:43:25.303Z,78730.00
2022-10-23T07:44:27.734Z,80053.00
2022-10-23T07:45:26.469Z,80984.00
2022-10-23T07:46:27.002Z,80941.00
2022-10-23T07:47:27.556Z,80584.00
2022-10-23T07:48:28.094Z,81266.00
2022-10-23T07:49:28.680Z,81094.00
2022-10-23T07:50:29.217Z,81063.00
2022-10-23T07:51:29.755Z,81498.00
2022-10-23T07:52:33.486Z,81888.00
2022-10-23T07:53:31.211Z,81505.00
2022-10-23T07:54:31.803Z,81871.00
2022-10-23T07:55:32.346Z,79979.00
2022-10-23T07:56:32.879Z,80406.00
2022-10-23T07:57:33.414Z,81766.00
2022-10-23T07:58:33.951Z,81537.00
2022-10-23T07:59:37.235Z,81533.00
2022-10-23T08:00:35.183Z,77417.00
2022-10-23T08:01:35.826Z,69767.00
2022-10-23T08:02:36.471Z,31340.00
2022-10-23T08:03:37.026Z,16080.00
2022-10-23T08:04:37.621Z,14887.00
2022-10-23T08:05:38.162Z,14131.00
2022-10-23T08:06:38.692Z,13351.00
2022-10-23T08:07:39.243Z,12465.00
2022-10-23T08:08:39.834Z,11737.00
2022-10-23T08:09:40.504Z,11323.00
2022-10-23T08:10:41.046Z,11033.00
2022-10-23T08:11:41.607Z,10766.00
2022-10-23T08:12:42.463Z,10485.00
2022-10-23T08:13:42.789Z,10226.00
2022-10-23T08:14:43.371Z,9977.00
2022-10-23T08:15:43.905Z,9772.00
2022-10-23T08:16:44.438Z,9419.00
2022-10-23T08:17:45.417Z,9125.00
2022-10-23T08:18:45.657Z,8891.00
2022-10-23T08:19:46.243Z,8628.00
2022-10-23T08:20:46.762Z,8416.00
2022-10-23T08:21:47.293Z,8192.00
2022-10-23T08:22:47.831Z,8003.00
2022-10-23T08:23:48.403Z,7850.00
2022-10-23T08:24:49.012Z,7647.00
2022-10-23T08:25:49.549Z,7495.00
2022-10-23T08:26:50.087Z,7339.00
2022-10-23T08:27:52.176Z,7233.00
2022-10-23T08:28:51.346Z,7147.00
2022-10-23T08:29:52.017Z,7079.00
2022-10-23T08:30:52.568Z,7015.00
2022-10-23T08:31:53.103Z,6926.00
2022-10-23T08:32:53.636Z,6835.00
2022-10-23T08:33:54.183Z,6746.00
2022-10-23T08:34:54.779Z,6665.00
2022-10-23T08:35:55.316Z,6632.00
2022-10-23T08:36:55.848Z,6527.00
2022-10-23T08:37:56.381Z,6501.00
2022-10-23T08:38:56.954Z,6425.00
2022-10-23T08:39:57.542Z,6370.00
2022-10-23T08:40:58.083Z,6342.00
2022-10-23T08:41:58.674Z,6306.00
2022-10-23T08:42:59.294Z,6291.00
2022-10-23T08:43:59.835Z,6261.00
2022-10-23T08:45:00.568Z,6260.00
2022-10-23T08:46:01.247Z,6277.00
2022-10-23T08:47:01.807Z,6277.00
2022-10-23T08:48:02.343Z,6284.00
2022-10-23T08:49:02.891Z,6317.00
2022-10-23T08:50:03.513Z,6344.00
2022-10-23T08:51:04.047Z,6448.00
2022-10-23T08:52:04.592Z,6550.00
2022-10-23T08:53:05.168Z,6664.00
2022-10-23T08:54:05.731Z,6863.00
2022-10-23T08:55:06.337Z,7117.00
2022-10-23T08:56:06.871Z,7350.00
2022-10-23T08:57:07.416Z,7323.00
2022-10-23T08:58:07.955Z,7360.00
2022-10-23T08:59:08.488Z,8041.00
2022-10-23T09:00:09.073Z,9955.00
2022-10-23T09:01:09.739Z,14559.00
2022-10-23T09:02:10.465Z,19849.00
2022-10-23T09:03:11.084Z,22572.00
2022-10-23T09:04:11.624Z,23712.00
2022-10-23T09:05:12.265Z,24635.00
2022-10-23T09:06:12.811Z,25944.00
2022-10-23T09:07:13.348Z,75430.00
2022-10-23T09:08:13.891Z,75806.00
2022-10-23T09:09:14.472Z,76150.00
2022-10-23T09:10:15.202Z,76436.00
2022-10-23T09:11:15.735Z,76611.00
2022-10-23T09:12:16.270Z,76813.00
2022-10-23T09:13:16.817Z,76969.00
2022-10-23T09:14:17.373Z,77170.00
2022-10-23T09:15:18.064Z,77403.00
2022-10-23T09:16:18.650Z,77613.00
2022-10-23T09:17:19.194Z,77771.00
2022-10-23T09:18:19.735Z,77908.00
2022-10-23T09:19:20.272Z,78045.00
2022-10-23T09:20:20.935Z,78234.00
2022-10-23T09:21:21.471Z,78504.00
2022-10-23T09:22:22.022Z,78647.00
2022-10-23T09:23:22.584Z,78765.00
2022-10-23T09:24:23.159Z,78858.00
2022-10-23T09:25:23.794Z,78901.00
2022-10-23T09:26:24.329Z,78976.00
2022-10-23T09:27:24.860Z,79215.00
2022-10-23T09:28:25.393Z,79372.00
2022-10-23T09:29:25.930Z,79399.00
2022-10-23T09:30:26.517Z,79395.00
2022-10-23T09:31:27.057Z,79480.00
2022-10-23T09:32:27.592Z,79511.00
2022-10-23T09:33:28.152Z,79513.00
2022-10-23T09:34:28.699Z,79613.00
2022-10-23T09:35:29.291Z,79682.00
2022-10-23T09:36:29.824Z,79803.00
2022-10-23T09:37:30.358Z,79849.00
2022-10-23T09:38:30.898Z,79927.00
2022-10-23T09:39:31.463Z,79966.00
2022-10-23T09:40:32.059Z,79989.00
2022-10-23T09:41:32.623Z,80067.00
2022-10-23T09:42:33.164Z,80049.00
2022-10-23T09:43:33.720Z,80104.00
2022-10-23T09:44:34.254Z,80056.00
2022-10-23T09:45:35.003Z,80081.00
2022-10-23T09:46:35.538Z,80103.00
2022-10-23T09:47:36.083Z,80136.00
2022-10-23T09:48:36.627Z,80142.00
2022-10-23T09:49:37.169Z,80151.00
2022-10-23T09:50:37.837Z,80132.00
2022-10-23T09:51:38.378Z,80180.00
2022-10-23T09:52:38.913Z,80217.00
2022-10-23T09:53:39.447Z,80198.00
2022-10-23T09:54:40.018Z,80308.00
2022-10-23T09:55:40.613Z,80274.00
2022-10-23T09:56:41.239Z,80317.00
2022-10-23T09:57:42.225Z,80381.00
2022-10-23T09:58:42.481Z,80414.00
2022-10-23T09:59:43.059Z,80385.00
2022-10-23T10:00:43.678Z,80381.00
2022-10-23T10:01:44.350Z,80376.00
2022-10-23T10:02:44.976Z,80422.00
2022-10-23T10:03:45.517Z,80444.00
2022-10-23T10:04:46.050Z,80475.00
2022-10-23T10:05:46.669Z,80408.00
2022-10-23T10:06:47.205Z,80388.00
2022-10-23T10:07:47.739Z,80403.00
2022-10-23T10:08:48.276Z,80380.00
2022-10-23T10:09:48.850Z,80438.00
2022-10-23T10:10:49.581Z,80413.00
2022-10-23T10:11:50.119Z,80407.00
2022-10-23T10:12:50.654Z,80393.00
2022-10-23T10:13:51.199Z,80325.00
2022-10-23T10:14:51.740Z,80360.00
2022-10-23T10:15:53.156Z,80314.00
2022-10-23T10:16:53.192Z,80300.00
2022-10-23T10:17:53.736Z,80357.00
2022-10-23T10:18:54.273Z,80342.00
2022-10-23T10:19:54.814Z,80342.00
2022-10-23T10:20:55.402Z,80310.00
2022-10-23T10:21:55.941Z,80301.00
2022-10-23T10:22:56.482Z,80279.00
2022-10-23T10:23:57.025Z,80211.00
2022-10-23T10:24:57.597Z,80191.00
2022-10-23T10:25:58.280Z,80248.00
2022-10-23T10:26:58.814Z,80305.00
2022-10-23T10:27:59.352Z,80303.00
2022-10-23T10:28:59.897Z,80314.00
2022-10-23T10:30:00.454Z,80264.00
2022-10-23T10:31:01.095Z,80208.00
2022-10-23T10:32:01.637Z,80148.00
2022-10-23T10:33:02.178Z,80111.00
2022-10-23T10:34:02.714Z,80147.00
2022-10-23T10:35:03.247Z,80164.00
2022-10-23T10:36:03.940Z,80115.00
2022-10-23T10:37:04.484Z,80073.00
2022-10-23T10:38:05.019Z,80072.00
2022-10-23T10:39:05.553Z,80084.00
2022-10-23T10:40:06.113Z,80064.00
2022-10-23T10:41:06.703Z,80062.00
2022-10-23T10:42:07.236Z,80046.00
2022-10-23T10:43:07.781Z,79996.00
2022-10-23T10:44:08.346Z,80015.00
2022-10-23T10:45:08.878Z,79965.00
2022-10-23T10:46:09.592Z,79957.00
2022-10-23T10:47:10.161Z,79932.00
2022-10-23T10:48:10.706Z,79942.00
2022-10-23T10:49:11.252Z,79887.00
2022-10-23T10:50:11.801Z,79832.00
2022-10-23T10:51:12.389Z,79834.00
2022-10-23T10:52:12.923Z,79795.00
2022-10-23T10:53:13.458Z,79809.00
2022-10-23T10:54:13.999Z,79782.00
2022-10-23T10:55:14.566Z,79769.00
2022-10-23T10:56:15.178Z,79722.00
2022-10-23T10:57:15.714Z,79691.00
2022-10-23T10:58:16.250Z,79620.00
2022-10-23T10:59:16.813Z,79608.00
2022-10-23T11:00:17.352Z,79594.00
2022-10-23T11:01:18.202Z,79540.00
2022-10-23T11:02:18.964Z,79494.00
2022-10-23T11:03:19.571Z,79458.00
2022-10-23T11:04:20.107Z,79411.00
2022-10-23T11:05:20.638Z,79380.00
2022-10-23T11:06:21.440Z,79310.00
2022-10-23T11:07:21.973Z,79219.00
2022-10-23T11:08:22.526Z,79212.00
2022-10-23T11:09:23.063Z,79072.00
2022-10-23T11:10:23.620Z,79095.00
2022-10-23T11:11:24.280Z,79079.00
2022-10-23T11:12:24.814Z,79012.00
2022-10-23T11:13:25.350Z,78948.00
2022-10-23T11:14:25.903Z,78989.00
2022-10-23T11:15:26.440Z,78907.00
2022-10-23T11:16:27.115Z,78842.00
2022-10-23T11:17:27.663Z,78792.00
2022-10-23T11:18:28.211Z,78789.00
2022-10-23T11:19:28.747Z,78733.00
2022-10-23T11:20:29.292Z,78495.00
2022-10-23T11:21:29.878Z,78658.00
2022-10-23T11:22:30.414Z,78523.00
2022-10-23T11:23:30.954Z,78385.00
2022-10-23T11:24:31.496Z,78187.00
2022-10-23T11:25:32.060Z,78216.00
2022-10-23T11:26:32.641Z,78286.00
2022-10-23T11:27:33.177Z,78262.00
2022-10-23T11:28:33.727Z,78318.00
2022-10-23T11:29:34.258Z,78225.00
2022-10-23T11:30:34.796Z,78228.00
2022-10-23T11:31:35.385Z,77919.00
2022-10-23T11:32:35.923Z,77970.00
2022-10-23T11:33:37.646Z,77812.00
2022-10-23T11:34:37.278Z,78011.00
2022-10-23T11:35:37.839Z,77775.00
2022-10-23T11:36:38.431Z,77711.00
2022-10-23T11:37:38.974Z,77434.00
2022-10-23T11:38:39.515Z,77374.00
2022-10-23T11:39:40.059Z,77477.00
2022-10-23T11:40:40.707Z,77242.00
2022-10-23T11:41:41.350Z,76415.00
2022-10-23T11:42:42.365Z,76221.00
2022-10-23T11:43:42.615Z,75423.00
2022-10-23T11:44:43.151Z,76213.00
2022-10-23T11:45:43.694Z,77120.00
2022-10-23T11:46:44.369Z,76950.00
2022-10-23T11:47:44.911Z,76806.00
2022-10-23T11:48:45.453Z,76559.00
2022-10-23T11:49:45.985Z,76349.00
2022-10-23T11:50:46.530Z,76301.00
2022-10-23T11:51:47.132Z,76200.00
2022-10-23T11:52:56.205Z,76082.00
2022-10-23T11:53:48.546Z,76029.00
2022-10-23T11:54:49.076Z,75882.00
2022-10-23T11:55:49.637Z,75865.00
2022-10-23T11:56:50.229Z,75660.00
2022-10-23T11:57:50.776Z,75555.00
2022-10-23T11:58:51.315Z,75478.00
2022-10-23T11:59:51.853Z,75344.00
2022-10-23T12:00:52.388Z,75255.00
2022-10-23T12:01:53.121Z,75080.00
2022-10-23T12:02:58.342Z,74896.00
2022-10-23T12:03:54.600Z,74697.00
2022-10-23T12:04:55.138Z,26806.00
2022-10-23T12:06:55.253Z,25928.00
2022-10-23T12:07:56.799Z,26050.00
2022-10-23T12:08:57.352Z,26013.00
2022-10-23T12:09:57.925Z,25997.00
2022-10-23T12:10:58.488Z,25425.00
2022-10-23T12:11:59.097Z,24768.00
2022-10-23T12:12:59.713Z,24961.00
2022-10-23T12:14:00.372Z,24375.00
2022-10-23T12:15:00.959Z,23897.00
2022-10-23T12:16:01.517Z,23834.00
2022-10-23T12:17:02.216Z,23808.00
2022-10-23T12:18:02.754Z,23446.00
2022-10-23T12:19:03.301Z,23091.00
2022-10-23T12:20:03.840Z,22766.00
2022-10-23T12:21:04.380Z,22684.00
2022-10-23T12:22:05.097Z,22635.00
2022-10-23T12:23:05.636Z,22479.00
2022-10-23T12:24:06.179Z,22442.00
2022-10-23T12:25:06.709Z,21721.00
2022-10-23T12:26:07.267Z,21902.00
2022-10-23T12:27:07.852Z,21777.00
2022-10-23T12:28:08.390Z,21382.00
2022-10-23T12:29:08.924Z,21313.00
2022-10-23T12:30:09.457Z,21346.00
2022-10-23T12:31:09.998Z,21116.00
2022-10-23T12:32:10.584Z,21147.00